Terminal Aerodrome Forecast
Issued by NWS Portland, OR

Home | Current Version | Previous Version | Text Only | Print | Product List | Glossary On
Versions: 1 2 3 4 5 6 7 8 9 10 11 12 13 14 15 16 17 18 19 20 21 22
000
FTUS46 KPQR 190801 AAB
TAFHIO
TAF AMD
KHIO 190801Z 1908/2006 33007KT P6SM SCT020 BKN050
     FM191600 VRB03KT P6SM SCT025
     FM192200 02004KT P6SM SCT250=

USA.gov is the U.S. government's official web portal to all federal, state and local government web resources and services.